Jackson, NH

5:37 PM EDT on March 24, 2017 (GMT -0400)
| | Change Station
Active Advisory: Winter Weather Advisory

Elev -9999 ft 0.00 °N, 0.00 °E | Updated 3 minutes ago

Snow
Snow
°F
Feels Like °F
N
Wind Variable Wind from North
Gusts mph

Today
High -- | Low -- °F
--% Chance of Precip.
Yesterday
High -- | Low -- °F
Precip. -- in
Pressure 30.07 in
Visibility 0.8 miles
Clouds Few 400 ft
Overcast 1300 ft
Dew Point Not available.
Humidity Not available.
Rainfall --
Snow Depth Not available.
6:40 AM 7:02 PM
Waning Crescent, 13% visible
SPECI KIZG 242131Z AUTO 00000KT 3/4SM -SN BR FEW004 OVC013 M01/M02 A3007 RMK AO2 P0002 T10111022
Pressure 30.07 in
Visibility 0.8 miles
Clouds Few 400 ft
Overcast 1300 ft
Dew Point Not available.
Humidity Not available.
Rainfall --
Snow Depth Not available.
6:40 AM 7:02 PM
Waning Crescent, 13% visible
SPECI KIZG 242131Z AUTO 00000KT 3/4SM -SN BR FEW004 OVC013 M01/M02 A3007 RMK AO2 P0002 T10111022

Get Your Daily Forecast Email!

Thanks for signing up!

Be on the lookout for a verification email in your inbox.

You'll start receiving severe weather alerts in your inbox..

×

10-Day Weather Forecast

Almanac

Astronomy

Mar. 24, 2017 Rise Set
Actual Time
Civil Twilight
Nautical Twilight
Astronomical Twilight
Moon
Length of Visible Light
Length of Day
Tomorrow will be .
, % of the Moon is Illuminated

Today's Extremes

State Highs State Lows

Community

WunderPhotos

Upload Photos

1,962,540 photos uploaded!

WunderBlog® & News

Nearby

Air Quality

  Air Quality AQ Index Pollutant
Not available.

Snow Depth

Station Depth Elevation

Earthquake Activity

City Distance Mag. Time & Date
Minimum magnitude displayed is 2.5.

Earthquake Activity

City Distance Mag. Time & Date
Minimum magnitude displayed is 2.5.

Coastal Water Temperatures

Place Temperature

Stations

Nearby Weather Stations

Station Location Temp. Windchill Dew Point Humidity Wind Precip. Elev Updated Type
                   

Watches & Warnings

Winter Weather Advisory
Issued: 1:56 PM EDT Mar. 24, 2017 – National Weather Service

... Winter Weather Advisory in effect until 9 PM EDT this
evening...

The National Weather Service in gray has issued a Winter Weather
Advisory for snow... which is in effect until 9 PM EDT this
evening.

* Hazard types... snow.

* Accumulations... snow accumulation of 3 to 6 inches.

* Timing... through this evening.

* Impacts... slippery travel conditions due to snow covered roads.

* Winds... southwest 5 to 10 mph with gusts up to 20 mph.

* Temperatures... in the upper 20s to lower 30s.

* Visibilities... occasionally below a half mile.

Precautionary/preparedness actions...

A Winter Weather Advisory for snow means that periods of snow
will cause primarily travel difficulties. Be prepared for snow
covered roads and limited visibilities... and use caution while
driving.